createdAt,value
2019-04-10T10:32:31.310Z,78.30
2019-04-10T10:34:59.029Z,79.00
2019-04-10T10:37:26.824Z,80.50
2019-04-10T10:39:54.888Z,97.00
2019-04-10T10:42:23.414Z,77.30
2019-04-10T10:44:51.148Z,74.70
2019-04-10T10:47:20.041Z,72.70
2019-04-10T10:49:48.756Z,71.70
2019-04-10T10:52:17.541Z,71.70
2019-04-10T10:54:45.304Z,72.10
2019-04-10T10:57:15.572Z,68.40
2019-04-10T10:59:43.942Z,69.20
2019-04-10T11:02:12.646Z,69.40
2019-04-10T11:04:43.276Z,75.00
2019-04-10T11:07:11.349Z,69.50
2019-04-10T11:09:40.193Z,71.90
2019-04-10T11:12:12.195Z,69.10
2019-04-10T11:14:40.673Z,70.40
2019-04-10T11:17:09.306Z,65.00
2019-04-10T11:19:37.633Z,70.90
2019-04-10T11:22:07.432Z,71.00
2019-04-10T11:24:35.644Z,74.40
2019-04-10T11:27:04.698Z,71.60
2019-04-10T11:29:32.783Z,71.10
2019-04-10T11:32:01.823Z,71.50
2019-04-10T11:34:31.615Z,62.70
2019-04-10T11:37:16.771Z,61.20
2019-04-10T11:39:31.748Z,61.70
2019-04-10T11:41:59.172Z,60.60
2019-04-10T11:44:27.495Z,61.00
2019-04-10T11:46:57.247Z,61.50
2019-04-10T11:49:27.680Z,58.90
2019-04-10T11:52:03.994Z,59.40
2019-04-10T11:54:34.786Z,58.60
2019-04-10T11:57:03.226Z,59.10
2019-04-10T11:59:33.878Z,59.60
2019-04-10T12:02:05.275Z,60.50
2019-04-10T12:04:33.592Z,59.00
2019-04-10T12:07:01.980Z,59.60
2019-04-10T12:11:59.422Z,58.20
2019-04-10T12:14:27.885Z,59.30
2019-04-10T12:16:55.852Z,58.60
2019-04-10T12:19:25.033Z,57.90
2019-04-10T12:21:53.807Z,59.10
2019-04-10T12:24:21.791Z,61.60
2019-04-10T12:26:49.923Z,60.50
2019-04-10T12:29:18.343Z,72.30
2019-04-10T12:31:46.212Z,70.80
2019-04-10T12:34:14.979Z,71.70
2019-04-10T12:36:43.528Z,64.90
2019-04-10T12:39:12.067Z,67.30
2019-04-10T12:41:40.006Z,75.40
2019-04-10T12:44:07.687Z,61.20
2019-04-10T12:46:35.383Z,56.40
2019-04-10T12:49:03.825Z,54.00
2019-04-10T12:51:31.990Z,53.10
2019-04-10T12:54:01.142Z,52.80
2019-04-10T12:56:29.050Z,52.30
2019-04-10T12:58:59.349Z,53.40
2019-04-10T13:01:27.278Z,54.20
2019-04-10T13:03:55.724Z,53.70
2019-04-10T13:06:24.227Z,53.40
2019-04-10T13:09:00.791Z,54.10
2019-04-10T13:11:22.549Z,53.40
2019-04-10T13:13:51.280Z,51.80
2019-04-10T13:16:20.335Z,51.70
2019-04-10T13:18:48.987Z,51.60
2019-04-10T13:21:18.185Z,51.60
2019-04-10T13:23:57.248Z,51.60
2019-04-10T13:26:26.000Z,50.90
2019-04-10T13:28:53.989Z,51.30
2019-04-10T13:31:21.622Z,50.90
2019-04-10T13:33:49.355Z,50.50
2019-04-10T13:36:17.866Z,52.90
2019-04-10T13:38:46.429Z,51.30
2019-04-10T13:41:16.462Z,51.10
2019-04-10T13:43:44.512Z,50.80
2019-04-10T13:46:12.958Z,56.20
2019-04-10T13:48:41.691Z,54.40
2019-04-10T13:51:09.551Z,48.30
2019-04-10T13:53:37.693Z,48.40
2019-04-10T13:56:06.478Z,47.30
2019-04-10T13:58:35.143Z,46.50
2019-04-10T14:01:05.188Z,45.50
2019-04-10T14:03:32.906Z,46.30
2019-04-10T14:06:01.170Z,45.40
2019-04-10T14:08:48.291Z,45.40
2019-04-10T14:11:00.467Z,45.50
2019-04-10T14:13:29.521Z,46.10
2019-04-10T14:15:58.122Z,46.00
2019-04-10T14:18:26.260Z,44.30
2019-04-10T14:20:53.982Z,44.40
2019-04-10T14:23:24.410Z,45.60
2019-04-10T14:26:10.453Z,44.60
2019-04-10T14:28:38.305Z,44.80
2019-04-10T14:31:13.091Z,44.90
2019-04-10T14:33:41.040Z,45.30
2019-04-10T14:36:08.749Z,44.40
2019-04-10T14:38:36.441Z,45.30
2019-04-10T14:41:05.233Z,45.60
2019-04-10T14:43:43.822Z,44.90
2019-04-10T14:46:12.366Z,44.40
2019-04-10T14:48:40.366Z,43.70
2019-04-10T14:51:08.475Z,44.20
2019-04-10T14:53:37.231Z,43.80
2019-04-10T14:56:06.946Z,43.90
2019-04-10T14:58:35.409Z,43.90
2019-04-10T15:01:06.853Z,45.00
2019-04-10T15:03:32.879Z,44.60
2019-04-10T15:06:02.257Z,44.40
2019-04-10T15:08:31.419Z,46.40
2019-04-10T15:11:00.237Z,47.00
2019-04-10T15:13:28.234Z,48.30
2019-04-10T15:15:56.713Z,48.60
2019-04-10T15:18:24.654Z,46.10
2019-04-10T15:20:52.511Z,45.70
2019-04-10T15:23:20.379Z,45.30
2019-04-10T15:25:49.287Z,55.00
2019-04-10T15:28:17.807Z,43.90
2019-04-10T15:30:46.597Z,47.30
2019-04-10T15:33:14.460Z,49.40
2019-04-10T15:35:42.139Z,44.10
2019-04-10T15:38:09.816Z,44.70
2019-04-10T15:40:38.500Z,45.40
2019-04-10T15:43:06.283Z,45.20
2019-04-10T15:45:34.267Z,43.80
2019-04-10T15:48:03.112Z,44.30
2019-04-10T15:50:31.232Z,44.80
2019-04-10T15:52:59.939Z,44.10
2019-04-10T15:55:27.927Z,44.50
2019-04-10T15:57:59.315Z,44.10
2019-04-10T16:00:25.732Z,43.30
2019-04-10T16:05:21.554Z,43.50
2019-04-10T16:07:49.366Z,52.50
2019-04-10T16:10:35.660Z,43.60
2019-04-10T16:13:08.077Z,46.80
2019-04-10T16:15:38.749Z,47.80
2019-04-10T16:18:13.448Z,55.30
2019-04-10T16:20:41.613Z,68.60
2019-04-10T16:23:14.909Z,70.20
